sensor_id;sensor_type;location;lat;lon;timestamp;P1;durP1;ratioP1;P2;durP2;ratioP2
14019;SDS011;7085;51.428;6.796;2023-04-09T03:02:47;26.13;;;17.77;;
14019;SDS011;7085;51.428;6.796;2023-04-09T03:05:14;31.73;;;18.80;;
14019;SDS011;7085;51.428;6.796;2023-04-09T03:07:42;26.83;;;17.67;;
14019;SDS011;7085;51.428;6.796;2023-04-09T03:10:09;27.63;;;17.30;;
14019;SDS011;7085;51.428;6.796;2023-04-09T03:12:36;32.67;;;19.37;;
14019;SDS011;7085;51.428;6.796;2023-04-09T03:15:03;31.17;;;19.23;;
14019;SDS011;7085;51.428;6.796;2023-04-09T03:17:31;34.43;;;20.83;;
14019;SDS011;7085;51.428;6.796;2023-04-09T03:19:59;29.90;;;18.63;;
14019;SDS011;7085;51.428;6.796;2023-04-09T03:22:26;32.80;;;21.20;;
14019;SDS011;7085;51.428;6.796;2023-04-09T03:24:54;36.13;;;19.77;;
14019;SDS011;7085;51.428;6.796;2023-04-09T03:27:21;34.63;;;20.83;;
14019;SDS011;7085;51.428;6.796;2023-04-09T03:29:48;33.57;;;19.87;;
14019;SDS011;7085;51.428;6.796;2023-04-09T03:32:15;33.33;;;19.77;;
14019;SDS011;7085;51.428;6.796;2023-04-09T03:34:42;33.43;;;21.10;;
14019;SDS011;7085;51.428;6.796;2023-04-09T03:37:11;34.03;;;20.60;;
14019;SDS011;7085;51.428;6.796;2023-04-09T03:39:38;33.33;;;20.97;;
14019;SDS011;7085;51.428;6.796;2023-04-09T03:42:05;29.00;;;19.47;;
14019;SDS011;7085;51.428;6.796;2023-04-09T03:44:32;32.60;;;20.60;;
14019;SDS011;7085;51.428;6.796;2023-04-09T03:46:59;34.57;;;21.83;;
14019;SDS011;7085;51.428;6.796;2023-04-09T03:49:27;37.90;;;21.97;;
14019;SDS011;7085;51.428;6.796;2023-04-09T03:51:54;33.20;;;20.80;;
14019;SDS011;7085;51.428;6.796;2023-04-09T03:54:22;32.10;;;20.53;;
14019;SDS011;7085;51.428;6.796;2023-04-09T03:56:49;35.10;;;21.13;;
14019;SDS011;7085;51.428;6.796;2023-04-09T03:59:16;36.70;;;21.87;;
14019;SDS011;7085;51.428;6.796;2023-04-09T04:01:43;37.80;;;21.50;;
14019;SDS011;7085;51.428;6.796;2023-04-09T04:04:10;33.80;;;20.70;;
14019;SDS011;7085;51.428;6.796;2023-04-09T04:06:37;39.43;;;21.23;;
14019;SDS011;7085;51.428;6.796;2023-04-09T04:09:05;30.47;;;20.57;;
14019;SDS011;7085;51.428;6.796;2023-04-09T04:11:33;31.80;;;21.77;;
14019;SDS011;7085;51.428;6.796;2023-04-09T04:14:00;37.67;;;20.00;;
14019;SDS011;7085;51.428;6.796;2023-04-09T04:16:27;32.13;;;21.93;;
14019;SDS011;7085;51.428;6.796;2023-04-09T04:18:54;30.70;;;19.70;;
14019;SDS011;7085;51.428;6.796;2023-04-09T04:21:21;31.83;;;21.23;;
14019;SDS011;7085;51.428;6.796;2023-04-09T04:23:48;29.93;;;16.93;;
14019;SDS011;7085;51.428;6.796;2023-04-09T04:26:15;29.07;;;17.30;;
14019;SDS011;7085;51.428;6.796;2023-04-09T04:28:44;30.97;;;17.83;;
14019;SDS011;7085;51.428;6.796;2023-04-09T04:31:11;30.33;;;17.10;;
14019;SDS011;7085;51.428;6.796;2023-04-09T04:33:38;30.67;;;17.53;;
14019;SDS011;7085;51.428;6.796;2023-04-09T04:36:06;27.83;;;17.47;;
14019;SDS011;7085;51.428;6.796;2023-04-09T04:38:34;31.20;;;17.83;;
14019;SDS011;7085;51.428;6.796;2023-04-09T04:41:01;32.23;;;17.80;;
14019;SDS011;7085;51.428;6.796;2023-04-09T04:43:28;25.83;;;16.97;;
14019;SDS011;7085;51.428;6.796;2023-04-09T04:45:57;29.90;;;19.97;;
14019;SDS011;7085;51.428;6.796;2023-04-09T04:48:24;29.60;;;17.90;;
14019;SDS011;7085;51.428;6.796;2023-04-09T04:50:55;33.20;;;17.70;;
14019;SDS011;7085;51.428;6.796;2023-04-09T04:53:22;31.50;;;18.83;;
14019;SDS011;7085;51.428;6.796;2023-04-09T04:55:49;30.90;;;16.60;;
14019;SDS011;7085;51.428;6.796;2023-04-09T04:58:16;28.03;;;17.87;;
14019;SDS011;7085;51.428;6.796;2023-04-09T05:00:43;29.87;;;18.80;;
14019;SDS011;7085;51.428;6.796;2023-04-09T05:03:12;33.00;;;18.37;;
14019;SDS011;7085;51.428;6.796;2023-04-09T05:05:39;29.83;;;18.10;;
14019;SDS011;7085;51.428;6.796;2023-04-09T05:08:06;31.23;;;17.43;;
14019;SDS011;7085;51.428;6.796;2023-04-09T05:10:33;25.93;;;16.63;;
14019;SDS011;7085;51.428;6.796;2023-04-09T05:13:00;30.03;;;17.73;;
14019;SDS011;7085;51.428;6.796;2023-04-09T05:15:27;31.27;;;17.50;;
14019;SDS011;7085;51.428;6.796;2023-04-09T05:17:55;28.37;;;18.13;;
14019;SDS011;7085;51.428;6.796;2023-04-09T05:20:23;33.03;;;18.10;;
14019;SDS011;7085;51.428;6.796;2023-04-09T05:22:50;29.23;;;16.90;;
14019;SDS011;7085;51.428;6.796;2023-04-09T05:25:17;28.73;;;17.03;;
14019;SDS011;7085;51.428;6.796;2023-04-09T05:27:44;29.80;;;17.33;;
14019;SDS011;7085;51.428;6.796;2023-04-09T05:30:11;29.03;;;16.73;;
14019;SDS011;7085;51.428;6.796;2023-04-09T05:32:38;30.67;;;17.90;;
14019;SDS011;7085;51.428;6.796;2023-04-09T05:35:06;29.37;;;17.10;;
14019;SDS011;7085;51.428;6.796;2023-04-09T05:37:34;31.33;;;15.57;;
14019;SDS011;7085;51.428;6.796;2023-04-09T05:40:01;27.03;;;16.23;;
14019;SDS011;7085;51.428;6.796;2023-04-09T05:42:28;27.57;;;16.83;;
14019;SDS011;7085;51.428;6.796;2023-04-09T05:44:55;28.17;;;15.77;;
14019;SDS011;7085;51.428;6.796;2023-04-09T05:47:23;29.47;;;17.23;;
14019;SDS011;7085;51.428;6.796;2023-04-09T05:49:50;26.30;;;16.03;;
14019;SDS011;7085;51.428;6.796;2023-04-09T05:52:17;28.37;;;16.17;;
14019;SDS011;7085;51.428;6.796;2023-04-09T05:54:46;25.77;;;16.97;;
14019;SDS011;7085;51.428;6.796;2023-04-09T05:57:13;29.93;;;16.27;;
14019;SDS011;7085;51.428;6.796;2023-04-09T05:59:40;29.90;;;17.30;;
14019;SDS011;7085;51.428;6.796;2023-04-09T06:02:07;29.90;;;16.27;;
14019;SDS011;7085;51.428;6.796;2023-04-09T06:04:35;28.60;;;16.53;;
14019;SDS011;7085;51.428;6.796;2023-04-09T06:07:02;30.57;;;16.30;;
14019;SDS011;7085;51.428;6.796;2023-04-09T06:09:29;28.33;;;17.93;;
14019;SDS011;7085;51.428;6.796;2023-04-09T06:11:57;31.23;;;17.17;;
14019;SDS011;7085;51.428;6.796;2023-04-09T06:14:24;26.47;;;16.43;;
14019;SDS011;7085;51.428;6.796;2023-04-09T06:16:51;28.80;;;17.40;;
14019;SDS011;7085;51.428;6.796;2023-04-09T06:19:18;23.97;;;16.53;;
14019;SDS011;7085;51.428;6.796;2023-04-09T06:21:46;28.20;;;17.00;;
14019;SDS011;7085;51.428;6.796;2023-04-09T06:24:13;27.87;;;17.80;;
14019;SDS011;7085;51.428;6.796;2023-04-09T06:26:40;30.00;;;16.77;;
14019;SDS011;7085;51.428;6.796;2023-04-09T06:29:08;25.33;;;16.10;;
14019;SDS011;7085;51.428;6.796;2023-04-09T06:31:35;27.03;;;17.20;;
14019;SDS011;7085;51.428;6.796;2023-04-09T06:34:02;28.00;;;16.30;;
14019;SDS011;7085;51.428;6.796;2023-04-09T06:36:30;26.67;;;16.07;;
14019;SDS011;7085;51.428;6.796;2023-04-09T06:38:58;23.50;;;15.23;;
14019;SDS011;7085;51.428;6.796;2023-04-09T06:41:25;23.47;;;15.10;;
14019;SDS011;7085;51.428;6.796;2023-04-09T06:43:53;25.83;;;15.17;;
14019;SDS011;7085;51.428;6.796;2023-04-09T06:46:21;26.37;;;15.57;;
14019;SDS011;7085;51.428;6.796;2023-04-09T06:48:48;26.40;;;15.40;;
14019;SDS011;7085;51.428;6.796;2023-04-09T06:51:15;27.30;;;17.60;;
14019;SDS011;7085;51.428;6.796;2023-04-09T06:53:42;22.23;;;14.27;;
14019;SDS011;7085;51.428;6.796;2023-04-09T06:56:12;27.37;;;15.47;;
14019;SDS011;7085;51.428;6.796;2023-04-09T06:58:39;22.33;;;14.50;;
14019;SDS011;7085;51.428;6.796;2023-04-09T07:01:06;20.73;;;13.40;;
14019;SDS011;7085;51.428;6.796;2023-04-09T07:03:35;21.33;;;13.43;;
14019;SDS011;7085;51.428;6.796;2023-04-09T07:06:02;17.95;;;12.73;;
14019;SDS011;7085;51.428;6.796;2023-04-09T07:08:29;24.20;;;14.33;;
14019;SDS011;7085;51.428;6.796;2023-04-09T07:10:57;19.60;;;14.32;;
14019;SDS011;7085;51.428;6.796;2023-04-09T07:13:24;17.80;;;13.52;;
14019;SDS011;7085;51.428;6.796;2023-04-09T07:15:51;18.13;;;11.98;;
14019;SDS011;7085;51.428;6.796;2023-04-09T07:18:18;19.52;;;12.63;;
14019;SDS011;7085;51.428;6.796;2023-04-09T07:20:46;18.67;;;12.82;;
14019;SDS011;7085;51.428;6.796;2023-04-09T07:23:13;19.20;;;12.80;;
14019;SDS011;7085;51.428;6.796;2023-04-09T07:25:41;17.13;;;11.82;;
14019;SDS011;7085;51.428;6.796;2023-04-09T07:28:08;18.80;;;11.13;;
14019;SDS011;7085;51.428;6.796;2023-04-09T07:30:35;19.35;;;12.20;;
14019;SDS011;7085;51.428;6.796;2023-04-09T07:33:02;19.25;;;13.00;;
14019;SDS011;7085;51.428;6.796;2023-04-09T07:35:29;14.77;;;10.93;;
14019;SDS011;7085;51.428;6.796;2023-04-09T07:38:00;15.50;;;10.90;;
14019;SDS011;7085;51.428;6.796;2023-04-09T07:40:27;14.45;;;10.50;;
14019;SDS011;7085;51.428;6.796;2023-04-09T07:42:54;15.65;;;11.10;;
14019;SDS011;7085;51.428;6.796;2023-04-09T07:45:22;15.98;;;10.98;;
14019;SDS011;7085;51.428;6.796;2023-04-09T07:47:49;15.88;;;10.68;;
14019;SDS011;7085;51.428;6.796;2023-04-09T07:50:16;14.88;;;10.60;;
14019;SDS011;7085;51.428;6.796;2023-04-09T07:52:43;11.02;;;7.85;;
14019;SDS011;7085;51.428;6.796;2023-04-09T07:55:12;12.32;;;8.68;;
14019;SDS011;7085;51.428;6.796;2023-04-09T07:57:40;10.90;;;8.27;;
14019;SDS011;7085;51.428;6.796;2023-04-09T08:00:09;11.82;;;7.45;;
14019;SDS011;7085;51.428;6.796;2023-04-09T08:02:37;10.32;;;6.97;;
14019;SDS011;7085;51.428;6.796;2023-04-09T08:05:05;11.02;;;7.75;;
14019;SDS011;7085;51.428;6.796;2023-04-09T08:07:32;10.52;;;7.15;;
14019;SDS011;7085;51.428;6.796;2023-04-09T08:09:59;9.73;;;6.60;;
14019;SDS011;7085;51.428;6.796;2023-04-09T08:12:27;9.43;;;6.03;;
14019;SDS011;7085;51.428;6.796;2023-04-09T08:14:54;9.35;;;6.00;;
14019;SDS011;7085;51.428;6.796;2023-04-09T08:17:22;9.43;;;6.22;;
14019;SDS011;7085;51.428;6.796;2023-04-09T08:19:49;8.73;;;5.63;;
14019;SDS011;7085;51.428;6.796;2023-04-09T08:22:17;7.72;;;5.75;;
14019;SDS011;7085;51.428;6.796;2023-04-09T08:24:44;9.43;;;5.38;;
14019;SDS011;7085;51.428;6.796;2023-04-09T08:27:11;6.78;;;5.20;;
14019;SDS011;7085;51.428;6.796;2023-04-09T08:29:39;6.72;;;4.68;;
14019;SDS011;7085;51.428;6.796;2023-04-09T08:32:06;7.10;;;4.75;;
14019;SDS011;7085;51.428;6.796;2023-04-09T08:34:33;5.28;;;4.22;;
14019;SDS011;7085;51.428;6.796;2023-04-09T08:37:00;6.60;;;4.57;;
14019;SDS011;7085;51.428;6.796;2023-04-09T08:39:27;5.28;;;4.63;;
14019;SDS011;7085;51.428;6.796;2023-04-09T08:41:55;5.80;;;4.88;;
14019;SDS011;7085;51.428;6.796;2023-04-09T08:44:24;5.55;;;4.53;;
14019;SDS011;7085;51.428;6.796;2023-04-09T08:46:53;5.03;;;4.38;;
14019;SDS011;7085;51.428;6.796;2023-04-09T08:49:20;5.25;;;4.78;;
14019;SDS011;7085;51.428;6.796;2023-04-09T08:51:47;6.03;;;4.47;;
14019;SDS011;7085;51.428;6.796;2023-04-09T08:54:15;7.82;;;4.43;;
14019;SDS011;7085;51.428;6.796;2023-04-09T08:56:43;5.10;;;4.32;;
14019;SDS011;7085;51.428;6.796;2023-04-09T08:59:13;5.15;;;4.57;;
14019;SDS011;7085;51.428;6.796;2023-04-09T09:01:41;4.90;;;4.03;;
14019;SDS011;7085;51.428;6.796;2023-04-09T09:04:09;4.10;;;3.65;;
14019;SDS011;7085;51.428;6.796;2023-04-09T09:06:37;4.32;;;3.83;;
14019;SDS011;7085;51.428;6.796;2023-04-09T09:09:05;4.40;;;3.92;;
14019;SDS011;7085;51.428;6.796;2023-04-09T09:11:32;4.57;;;4.10;;
14019;SDS011;7085;51.428;6.796;2023-04-09T09:14:00;4.88;;;4.03;;
14019;SDS011;7085;51.428;6.796;2023-04-09T09:16:28;4.60;;;4.10;;
14019;SDS011;7085;51.428;6.796;2023-04-09T09:18:55;4.32;;;3.63;;
14019;SDS011;7085;51.428;6.796;2023-04-09T09:21:23;4.72;;;3.58;;
14019;SDS011;7085;51.428;6.796;2023-04-09T09:23:51;6.03;;;4.30;;
14019;SDS011;7085;51.428;6.796;2023-04-09T09:26:19;5.30;;;4.20;;
14019;SDS011;7085;51.428;6.796;2023-04-09T09:28:47;4.60;;;3.70;;
14019;SDS011;7085;51.428;6.796;2023-04-09T09:31:15;5.25;;;4.50;;
14019;SDS011;7085;51.428;6.796;2023-04-09T09:33:42;3.88;;;2.95;;
14019;SDS011;7085;51.428;6.796;2023-04-09T09:36:10;5.03;;;4.22;;
14019;SDS011;7085;51.428;6.796;2023-04-09T09:38:52;5.38;;;4.05;;
14019;SDS011;7085;51.428;6.796;2023-04-09T09:41:19;5.60;;;4.40;;
14019;SDS011;7085;51.428;6.796;2023-04-09T09:43:46;5.25;;;4.78;;
14019;SDS011;7085;51.428;6.796;2023-04-09T09:46:14;3.85;;;3.45;;
14019;SDS011;7085;51.428;6.796;2023-04-09T09:48:41;3.95;;;3.55;;
14019;SDS011;7085;51.428;6.796;2023-04-09T09:51:10;5.07;;;3.33;;
14019;SDS011;7085;51.428;6.796;2023-04-09T09:53:38;4.18;;;3.78;;
14019;SDS011;7085;51.428;6.796;2023-04-09T09:56:09;5.75;;;4.10;;
14019;SDS011;7085;51.428;6.796;2023-04-09T09:58:39;4.30;;;3.42;;
14019;SDS011;7085;51.428;6.796;2023-04-09T10:01:07;4.10;;;3.67;;
14019;SDS011;7085;51.428;6.796;2023-04-09T10:03:35;4.07;;;3.67;;
14019;SDS011;7085;51.428;6.796;2023-04-09T10:06:03;3.92;;;3.40;;
14019;SDS011;7085;51.428;6.796;2023-04-09T10:08:32;4.50;;;3.72;;
14019;SDS011;7085;51.428;6.796;2023-04-09T10:11:00;4.45;;;3.97;;
14019;SDS011;7085;51.428;6.796;2023-04-09T10:13:30;4.97;;;4.15;;
14019;SDS011;7085;51.428;6.796;2023-04-09T10:15:59;5.85;;;4.28;;
14019;SDS011;7085;51.428;6.796;2023-04-09T10:18:26;5.25;;;4.55;;
14019;SDS011;7085;51.428;6.796;2023-04-09T10:20:55;5.28;;;4.53;;
14019;SDS011;7085;51.428;6.796;2023-04-09T10:23:26;4.53;;;4.10;;
14019;SDS011;7085;51.428;6.796;2023-04-09T10:25:57;4.55;;;3.97;;
14019;SDS011;7085;51.428;6.796;2023-04-09T10:28:24;4.35;;;3.92;;
14019;SDS011;7085;51.428;6.796;2023-04-09T10:30:52;4.72;;;4.22;;
14019;SDS011;7085;51.428;6.796;2023-04-09T10:33:23;4.38;;;3.97;;
14019;SDS011;7085;51.428;6.796;2023-04-09T10:35:52;5.45;;;3.97;;
14019;SDS011;7085;51.428;6.796;2023-04-09T10:38:31;4.00;;;3.58;;
14019;SDS011;7085;51.428;6.796;2023-04-09T10:41:00;4.22;;;3.50;;
14019;SDS011;7085;51.428;6.796;2023-04-09T10:43:32;4.50;;;3.75;;
14019;SDS011;7085;51.428;6.796;2023-04-09T10:46:01;3.92;;;3.53;;
14019;SDS011;7085;51.428;6.796;2023-04-09T10:48:34;3.60;;;3.30;;
14019;SDS011;7085;51.428;6.796;2023-04-09T10:51:01;4.22;;;3.60;;
14019;SDS011;7085;51.428;6.796;2023-04-09T10:53:30;10.50;;;3.75;;
14019;SDS011;7085;51.428;6.796;2023-04-09T10:55:58;5.18;;;4.10;;
14019;SDS011;7085;51.428;6.796;2023-04-09T10:58:26;4.00;;;3.60;;
14019;SDS011;7085;51.428;6.796;2023-04-09T11:00:53;4.43;;;4.03;;
14019;SDS011;7085;51.428;6.796;2023-04-09T11:03:23;3.90;;;3.50;;
14019;SDS011;7085;51.428;6.796;2023-04-09T11:05:51;5.10;;;3.90;;
14019;SDS011;7085;51.428;6.796;2023-04-09T11:08:20;4.65;;;3.50;;
14019;SDS011;7085;51.428;6.796;2023-04-09T11:10:47;4.53;;;4.13;;
14019;SDS011;7085;51.428;6.796;2023-04-09T11:13:16;3.88;;;3.47;;
14019;SDS011;7085;51.428;6.796;2023-04-09T11:15:44;4.18;;;3.78;;
14019;SDS011;7085;51.428;6.796;2023-04-09T11:18:14;4.93;;;4.10;;
14019;SDS011;7085;51.428;6.796;2023-04-09T11:20:43;4.68;;;4.13;;
14019;SDS011;7085;51.428;6.796;2023-04-09T11:23:11;4.13;;;3.70;;
14019;SDS011;7085;51.428;6.796;2023-04-09T11:25:39;4.38;;;3.75;;
14019;SDS011;7085;51.428;6.796;2023-04-09T11:28:06;5.22;;;3.88;;
14019;SDS011;7085;51.428;6.796;2023-04-09T11:30:33;3.75;;;3.45;;
14019;SDS011;7085;51.428;6.796;2023-04-09T11:33:01;4.38;;;3.72;;
14019;SDS011;7085;51.428;6.796;2023-04-09T11:35:28;3.80;;;3.35;;
14019;SDS011;7085;51.428;6.796;2023-04-09T11:37:57;3.10;;;2.75;;
14019;SDS011;7085;51.428;6.796;2023-04-09T11:40:24;3.40;;;3.10;;
14019;SDS011;7085;51.428;6.796;2023-04-09T11:42:53;3.67;;;3.35;;
14019;SDS011;7085;51.428;6.796;2023-04-09T11:45:21;4.95;;;3.55;;
14019;SDS011;7085;51.428;6.796;2023-04-09T11:47:48;4.32;;;3.70;;
14019;SDS011;7085;51.428;6.796;2023-04-09T11:50:15;4.35;;;3.78;;
14019;SDS011;7085;51.428;6.796;2023-04-09T11:52:43;4.22;;;3.53;;
14019;SDS011;7085;51.428;6.796;2023-04-09T11:55:17;4.78;;;3.90;;
14019;SDS011;7085;51.428;6.796;2023-04-09T11:57:48;4.13;;;3.75;;
14019;SDS011;7085;51.428;6.796;2023-04-09T12:00:16;4.47;;;3.65;;
14019;SDS011;7085;51.428;6.796;2023-04-09T12:02:45;5.07;;;4.15;;
14019;SDS011;7085;51.428;6.796;2023-04-09T12:05:19;5.18;;;4.55;;
14019;SDS011;7085;51.428;6.796;2023-04-09T12:07:47;3.83;;;3.40;;
14019;SDS011;7085;51.428;6.796;2023-04-09T12:10:15;3.60;;;3.30;;
14019;SDS011;7085;51.428;6.796;2023-04-09T12:12:43;4.68;;;3.30;;
14019;SDS011;7085;51.428;6.796;2023-04-09T12:15:11;5.45;;;3.95;;
14019;SDS011;7085;51.428;6.796;2023-04-09T12:17:38;5.25;;;4.32;;
14019;SDS011;7085;51.428;6.796;2023-04-09T12:20:06;4.28;;;3.88;;
14019;SDS011;7085;51.428;6.796;2023-04-09T12:22:33;4.32;;;3.85;;
14019;SDS011;7085;51.428;6.796;2023-04-09T12:25:05;3.88;;;3.47;;
14019;SDS011;7085;51.428;6.796;2023-04-09T12:27:33;4.95;;;3.33;;
14019;SDS011;7085;51.428;6.796;2023-04-09T12:30:00;5.15;;;4.18;;
14019;SDS011;7085;51.428;6.796;2023-04-09T12:32:27;4.07;;;3.63;;
14019;SDS011;7085;51.428;6.796;2023-04-09T12:34:54;5.07;;;4.05;;
14019;SDS011;7085;51.428;6.796;2023-04-09T12:37:21;3.55;;;3.25;;
14019;SDS011;7085;51.428;6.796;2023-04-09T12:39:48;4.40;;;3.60;;
14019;SDS011;7085;51.428;6.796;2023-04-09T12:42:15;4.22;;;3.88;;
14019;SDS011;7085;51.428;6.796;2023-04-09T12:44:44;4.28;;;3.88;;
14019;SDS011;7085;51.428;6.796;2023-04-09T12:47:11;4.93;;;3.92;;
14019;SDS011;7085;51.428;6.796;2023-04-09T12:49:38;5.03;;;3.97;;
14019;SDS011;7085;51.428;6.796;2023-04-09T12:52:09;4.80;;;3.97;;
14019;SDS011;7085;51.428;6.796;2023-04-09T12:54:36;3.97;;;3.67;;
14019;SDS011;7085;51.428;6.796;2023-04-09T12:57:04;5.47;;;4.10;;
14019;SDS011;7085;51.428;6.796;2023-04-09T12:59:31;4.65;;;4.25;;
14019;SDS011;7085;51.428;6.796;2023-04-09T13:01:59;3.72;;;3.25;;
14019;SDS011;7085;51.428;6.796;2023-04-09T13:04:26;3.80;;;3.35;;
14019;SDS011;7085;51.428;6.796;2023-04-09T13:06:53;4.95;;;4.15;;
14019;SDS011;7085;51.428;6.796;2023-04-09T13:09:21;5.82;;;4.15;;
14019;SDS011;7085;51.428;6.796;2023-04-09T13:11:48;3.85;;;3.45;;
14019;SDS011;7085;51.428;6.796;2023-04-09T13:14:15;3.88;;;3.42;;
14019;SDS011;7085;51.428;6.796;2023-04-09T13:16:42;4.68;;;3.85;;
14019;SDS011;7085;51.428;6.796;2023-04-09T13:19:10;5.07;;;4.28;;
14019;SDS011;7085;51.428;6.796;2023-04-09T13:21:38;6.32;;;3.90;;
14019;SDS011;7085;51.428;6.796;2023-04-09T13:24:05;4.20;;;3.80;;
14019;SDS011;7085;51.428;6.796;2023-04-09T13:26:32;4.00;;;3.60;;
14019;SDS011;7085;51.428;6.796;2023-04-09T13:28:59;4.28;;;3.88;;
14019;SDS011;7085;51.428;6.796;2023-04-09T13:31:26;4.10;;;3.60;;
14019;SDS011;7085;51.428;6.796;2023-04-09T13:33:53;4.07;;;3.67;;
14019;SDS011;7085;51.428;6.796;2023-04-09T13:36:22;4.75;;;3.83;;
14019;SDS011;7085;51.428;6.796;2023-04-09T13:38:49;3.97;;;3.67;;
14019;SDS011;7085;51.428;6.796;2023-04-09T13:41:16;3.60;;;3.30;;
14019;SDS011;7085;51.428;6.796;2023-04-09T13:43:44;3.75;;;3.42;;
14019;SDS011;7085;51.428;6.796;2023-04-09T13:46:11;4.95;;;3.97;;
14019;SDS011;7085;51.428;6.796;2023-04-09T13:48:38;4.07;;;3.67;;
14019;SDS011;7085;51.428;6.796;2023-04-09T13:51:05;4.22;;;3.78;;
14019;SDS011;7085;51.428;6.796;2023-04-09T13:53:34;4.25;;;3.85;;
14019;SDS011;7085;51.428;6.796;2023-04-09T13:56:01;4.60;;;4.20;;
14019;SDS011;7085;51.428;6.796;2023-04-09T13:58:28;4.38;;;3.90;;
14019;SDS011;7085;51.428;6.796;2023-04-09T14:00:55;4.22;;;3.83;;
14019;SDS011;7085;51.428;6.796;2023-04-09T14:03:22;4.82;;;4.25;;
14019;SDS011;7085;51.428;6.796;2023-04-09T14:05:50;4.13;;;3.72;;
14019;SDS011;7085;51.428;6.796;2023-04-09T14:08:17;4.50;;;4.10;;
14019;SDS011;7085;51.428;6.796;2023-04-09T14:10:45;4.35;;;3.92;;
14019;SDS011;7085;51.428;6.796;2023-04-09T14:13:12;3.90;;;3.60;;
14019;SDS011;7085;51.428;6.796;2023-04-09T14:15:39;4.47;;;4.07;;
14019;SDS011;7085;51.428;6.796;2023-04-09T14:18:08;4.63;;;4.05;;
14019;SDS011;7085;51.428;6.796;2023-04-09T14:20:35;4.55;;;4.15;;
14019;SDS011;7085;51.428;6.796;2023-04-09T14:23:03;3.78;;;3.38;;
14019;SDS011;7085;51.428;6.796;2023-04-09T14:25:30;4.35;;;3.95;;
14019;SDS011;7085;51.428;6.796;2023-04-09T14:27:58;4.82;;;4.22;;
14019;SDS011;7085;51.428;6.796;2023-04-09T14:30:25;5.15;;;3.45;;
14019;SDS011;7085;51.428;6.796;2023-04-09T14:32:52;4.70;;;3.78;;
14019;SDS011;7085;51.428;6.796;2023-04-09T14:35:20;4.03;;;3.58;;
14019;SDS011;7085;51.428;6.796;2023-04-09T14:37:47;4.57;;;3.28;;
14019;SDS011;7085;51.428;6.796;2023-04-09T14:40:14;4.15;;;3.30;;
14019;SDS011;7085;51.428;6.796;2023-04-09T14:42:41;3.60;;;3.30;;
14019;SDS011;7085;51.428;6.796;2023-04-09T14:45:10;3.03;;;2.80;;
14019;SDS011;7085;51.428;6.796;2023-04-09T14:47:37;3.35;;;3.05;;
14019;SDS011;7085;51.428;6.796;2023-04-09T14:50:04;4.03;;;3.13;;
14019;SDS011;7085;51.428;6.796;2023-04-09T14:52:31;3.88;;;3.47;;
14019;SDS011;7085;51.428;6.796;2023-04-09T14:54:58;3.67;;;3.38;;
14019;SDS011;7085;51.428;6.796;2023-04-09T14:57:25;3.17;;;2.88;;
14019;SDS011;7085;51.428;6.796;2023-04-09T14:59:52;3.05;;;2.60;;
14019;SDS011;7085;51.428;6.796;2023-04-09T15:02:21;3.03;;;2.78;;
14019;SDS011;7085;51.428;6.796;2023-04-09T15:04:48;4.15;;;3.75;;
14019;SDS011;7085;51.428;6.796;2023-04-09T15:07:15;3.47;;;3.17;;
14019;SDS011;7085;51.428;6.796;2023-04-09T15:09:42;3.25;;;2.90;;
14019;SDS011;7085;51.428;6.796;2023-04-09T15:12:09;3.63;;;3.33;;
14019;SDS011;7085;51.428;6.796;2023-04-09T15:14:36;3.13;;;2.83;;
14019;SDS011;7085;51.428;6.796;2023-04-09T15:17:03;3.63;;;3.33;;
14019;SDS011;7085;51.428;6.796;2023-04-09T15:19:31;3.05;;;2.75;;
14019;SDS011;7085;51.428;6.796;2023-04-09T15:21:59;4.20;;;3.20;;
14019;SDS011;7085;51.428;6.796;2023-04-09T15:24:26;3.40;;;2.58;;
14019;SDS011;7085;51.428;6.796;2023-04-09T15:26:53;3.00;;;2.50;;
14019;SDS011;7085;51.428;6.796;2023-04-09T15:29:21;2.90;;;2.70;;
14019;SDS011;7085;51.428;6.796;2023-04-09T15:31:48;3.33;;;3.03;;
14019;SDS011;7085;51.428;6.796;2023-04-09T15:34:18;3.13;;;2.83;;
14019;SDS011;7085;51.428;6.796;2023-04-09T15:36:46;3.00;;;2.70;;
14019;SDS011;7085;51.428;6.796;2023-04-09T15:39:13;3.17;;;2.88;;
14019;SDS011;7085;51.428;6.796;2023-04-09T15:41:41;3.03;;;2.80;;
14019;SDS011;7085;51.428;6.796;2023-04-09T15:44:08;3.33;;;2.50;;
14019;SDS011;7085;51.428;6.796;2023-04-09T15:46:36;3.05;;;2.80;;
14019;SDS011;7085;51.428;6.796;2023-04-09T15:49:03;3.13;;;2.83;;
14019;SDS011;7085;51.428;6.796;2023-04-09T15:51:30;3.35;;;3.05;;
14019;SDS011;7085;51.428;6.796;2023-04-09T15:53:59;3.17;;;2.88;;
14019;SDS011;7085;51.428;6.796;2023-04-09T15:56:26;3.17;;;2.88;;
14019;SDS011;7085;51.428;6.796;2023-04-09T15:58:53;3.13;;;2.83;;
14019;SDS011;7085;51.428;6.796;2023-04-09T16:01:20;2.78;;;2.55;;
14019;SDS011;7085;51.428;6.796;2023-04-09T16:03:47;3.10;;;2.78;;
14019;SDS011;7085;51.428;6.796;2023-04-09T16:06:16;3.55;;;3.13;;
14019;SDS011;7085;51.428;6.796;2023-04-09T16:08:43;4.78;;;4.22;;
14019;SDS011;7085;51.428;6.796;2023-04-09T16:11:12;3.20;;;2.90;;
14019;SDS011;7085;51.428;6.796;2023-04-09T16:13:39;3.33;;;2.92;;
14019;SDS011;7085;51.428;6.796;2023-04-09T16:16:06;3.50;;;3.10;;
14019;SDS011;7085;51.428;6.796;2023-04-09T16:18:33;3.80;;;2.85;;
14019;SDS011;7085;51.428;6.796;2023-04-09T16:21:00;3.80;;;3.28;;
14019;SDS011;7085;51.428;6.796;2023-04-09T16:23:28;3.55;;;2.80;;
14019;SDS011;7085;51.428;6.796;2023-04-09T16:25:55;3.00;;;2.80;;
14019;SDS011;7085;51.428;6.796;2023-04-09T16:28:23;3.58;;;3.08;;
14019;SDS011;7085;51.428;6.796;2023-04-09T16:30:51;3.25;;;2.78;;
14019;SDS011;7085;51.428;6.796;2023-04-09T16:33:18;3.42;;;3.13;;
14019;SDS011;7085;51.428;6.796;2023-04-09T16:35:45;3.13;;;2.83;;
14019;SDS011;7085;51.428;6.796;2023-04-09T16:38:12;3.60;;;2.55;;
14019;SDS011;7085;51.428;6.796;2023-04-09T16:40:39;3.22;;;2.95;;
14019;SDS011;7085;51.428;6.796;2023-04-09T16:43:06;3.17;;;2.65;;
14019;SDS011;7085;51.428;6.796;2023-04-09T16:45:35;5.55;;;3.28;;
14019;SDS011;7085;51.428;6.796;2023-04-09T16:48:02;2.63;;;2.42;;
14019;SDS011;7085;51.428;6.796;2023-04-09T16:50:30;2.97;;;2.78;;
14019;SDS011;7085;51.428;6.796;2023-04-09T16:52:57;2.63;;;2.42;;
14019;SDS011;7085;51.428;6.796;2023-04-09T16:55:25;2.83;;;2.60;;
14019;SDS011;7085;51.428;6.796;2023-04-09T16:57:52;3.45;;;3.03;;
14019;SDS011;7085;51.428;6.796;2023-04-09T17:00:20;3.47;;;2.63;;
14019;SDS011;7085;51.428;6.796;2023-04-09T17:02:48;3.85;;;3.35;;
14019;SDS011;7085;51.428;6.796;2023-04-09T17:05:16;4.07;;;3.00;;
14019;SDS011;7085;51.428;6.796;2023-04-09T17:07:43;3.80;;;3.17;;
14019;SDS011;7085;51.428;6.796;2023-04-09T17:10:10;4.25;;;3.03;;
14019;SDS011;7085;51.428;6.796;2023-04-09T17:12:37;3.55;;;2.90;;
14019;SDS011;7085;51.428;6.796;2023-04-09T17:15:05;2.80;;;2.58;;
14019;SDS011;7085;51.428;6.796;2023-04-09T17:17:32;3.83;;;2.95;;
14019;SDS011;7085;51.428;6.796;2023-04-09T17:20:01;3.65;;;3.20;;
14019;SDS011;7085;51.428;6.796;2023-04-09T17:22:28;3.65;;;3.28;;
14019;SDS011;7085;51.428;6.796;2023-04-09T17:24:55;3.58;;;3.28;;
14019;SDS011;7085;51.428;6.796;2023-04-09T17:27:22;3.97;;;3.60;;
14019;SDS011;7085;51.428;6.796;2023-04-09T17:29:49;3.60;;;3.13;;
14019;SDS011;7085;51.428;6.796;2023-04-09T17:32:17;3.90;;;3.28;;
14019;SDS011;7085;51.428;6.796;2023-04-09T17:34:45;2.80;;;2.60;;
14019;SDS011;7085;51.428;6.796;2023-04-09T17:37:14;3.50;;;3.20;;
14019;SDS011;7085;51.428;6.796;2023-04-09T17:39:41;3.35;;;3.05;;
14019;SDS011;7085;51.428;6.796;2023-04-09T17:42:08;3.60;;;3.00;;
14019;SDS011;7085;51.428;6.796;2023-04-09T17:44:36;3.30;;;3.00;;
14019;SDS011;7085;51.428;6.796;2023-04-09T17:47:03;4.07;;;3.47;;
14019;SDS011;7085;51.428;6.796;2023-04-09T17:49:31;3.28;;;2.97;;
14019;SDS011;7085;51.428;6.796;2023-04-09T17:51:58;3.75;;;3.15;;
14019;SDS011;7085;51.428;6.796;2023-04-09T17:54:30;3.72;;;3.30;;
14019;SDS011;7085;51.428;6.796;2023-04-09T17:56:57;2.90;;;2.70;;